Justus, Ohio
Current Conditions -  °F | °C
As of 3:51 AM on Sunday 26 Oct 2014 (Local Time) from KCAK Reporting Station
Clear Clear  
Wind Chill: 43°   Ceiling: Unl
Heat Index: 47°   Visibility: 10mi
Dew Point: 32°   Wind: 9mph
Humidity: 56%   Direction: 300°WNW
Pressure: 29.83"   Gusts: NA
Location:  40.7079°N, 81.5547°W
Report Text: KCAK 260751Z 30008KT 10SM CLR 08/00 A2983 RMK AO2 SLP099 T00830000
Loading
Personal Weather Stations






























Interactive Weather Map
Tropical Storm Tracking
New forecast layout! Learn more

10-Day Weather Forecast

Advertisements
Track Severe Weather on mobile